createdAt,value
2023-02-11T01:14:57.526Z,31.40
2023-02-11T01:18:01.333Z,32.70
2023-02-11T01:21:02.438Z,30.00
2023-02-11T01:24:03.669Z,33.60
2023-02-11T01:27:03.319Z,35.00
2023-02-11T01:30:04.574Z,32.50
2023-02-11T01:33:06.368Z,32.00
2023-02-11T01:36:09.457Z,24.50
2023-02-11T01:39:09.367Z,28.50
2023-02-11T01:42:10.334Z,30.80
2023-02-11T01:45:13.365Z,32.50
2023-02-11T01:48:15.345Z,34.50
2023-02-11T01:51:27.904Z,31.10
2023-02-11T01:54:52.359Z,31.00
2023-02-11T01:57:53.341Z,34.60
2023-02-11T02:00:55.494Z,30.60
2023-02-11T02:03:56.495Z,33.40
2023-02-11T02:07:09.399Z,38.10
2023-02-11T02:10:19.536Z,34.20
2023-02-11T02:13:23.379Z,34.70
2023-02-11T02:16:27.535Z,32.10
2023-02-11T02:19:40.474Z,31.60
2023-02-11T02:23:12.391Z,35.80
2023-02-11T02:26:27.413Z,35.70
2023-02-11T02:29:54.392Z,36.70
2023-02-11T02:33:07.932Z,39.40
2023-02-11T02:36:28.420Z,38.10
2023-02-11T02:39:37.502Z,37.30
2023-02-11T02:42:38.439Z,32.20
2023-02-11T02:45:38.420Z,34.40
2023-02-11T02:48:47.679Z,35.40
2023-02-11T02:51:56.454Z,38.00
2023-02-11T02:55:09.426Z,35.90
2023-02-11T02:58:40.448Z,44.50
2023-02-11T03:01:58.561Z,33.40
2023-02-11T03:05:34.481Z,35.10
2023-02-11T03:08:48.615Z,33.50
2023-02-11T03:11:49.507Z,33.30
2023-02-11T03:14:49.484Z,36.90
2023-02-11T03:17:52.498Z,32.70
2023-02-11T03:20:52.510Z,32.30
2023-02-11T03:24:07.750Z,33.40
2023-02-11T03:27:19.062Z,31.70
2023-02-11T03:30:23.518Z,31.40
2023-02-11T03:33:36.528Z,30.40
2023-02-11T03:36:54.590Z,39.70
2023-02-11T03:40:01.587Z,31.00
2023-02-11T03:43:09.821Z,35.60
2023-02-11T03:46:09.565Z,34.50
2023-02-11T03:49:11.547Z,31.90
2023-02-11T03:52:17.727Z,32.80
2023-02-11T03:55:25.708Z,31.10
2023-02-11T03:58:26.655Z,30.40
2023-02-11T04:01:26.629Z,31.70
2023-02-11T04:04:27.579Z,29.90
2023-02-11T04:07:30.668Z,35.80
2023-02-11T04:10:33.772Z,31.50
2023-02-11T04:13:36.615Z,33.10
2023-02-11T04:16:37.661Z,38.90
2023-02-11T04:19:38.634Z,28.30
2023-02-11T04:22:43.153Z,36.90
2023-02-11T04:25:47.673Z,32.00
2023-02-11T04:28:47.691Z,31.10
2023-02-11T04:31:48.747Z,32.40
2023-02-11T04:34:50.638Z,38.80
2023-02-11T04:37:52.628Z,33.40
2023-02-11T04:40:52.650Z,36.70
2023-02-11T04:43:53.709Z,32.10
2023-02-11T04:46:55.674Z,33.70
2023-02-11T04:49:58.795Z,29.10
2023-02-11T04:53:01.967Z,31.10
2023-02-11T04:56:02.711Z,32.20
2023-02-11T04:59:02.787Z,33.90
2023-02-11T05:02:02.782Z,28.80
2023-02-11T05:05:03.893Z,28.90
2023-02-11T05:08:04.667Z,32.50
2023-02-11T05:11:04.717Z,32.60
2023-02-11T05:14:08.536Z,34.70
2023-02-11T05:17:08.866Z,30.60
2023-02-11T05:20:08.676Z,30.90
2023-02-11T05:23:09.702Z,34.60
2023-02-11T05:26:10.857Z,32.80
2023-02-11T05:29:12.837Z,30.20
2023-02-11T05:32:21.682Z,30.70
2023-02-11T05:35:21.776Z,36.00
2023-02-11T05:38:27.155Z,33.30
2023-02-11T05:41:28.716Z,34.60
2023-02-11T05:44:28.699Z,34.10
2023-02-11T05:47:30.725Z,33.70
2023-02-11T05:50:32.700Z,32.70
2023-02-11T05:53:32.721Z,34.10
2023-02-11T05:56:43.776Z,39.90
2023-02-11T05:59:45.744Z,28.70
2023-02-11T06:02:47.137Z,32.60
2023-02-11T06:05:48.158Z,34.80
2023-02-11T06:08:51.761Z,29.90
2023-02-11T06:11:51.909Z,30.00
2023-02-11T06:14:52.818Z,31.10
2023-02-11T06:17:55.096Z,26.50
2023-02-11T06:20:58.769Z,30.80
2023-02-11T06:24:00.827Z,29.60
2023-02-11T06:27:00.814Z,27.60
2023-02-11T06:30:01.918Z,27.30
2023-02-11T06:33:02.796Z,30.50
2023-02-11T06:36:04.238Z,26.00
2023-02-11T06:39:04.875Z,33.90
2023-02-11T06:42:08.021Z,30.60
2023-02-11T06:45:14.608Z,30.70
2023-02-11T06:48:21.417Z,28.30
2023-02-11T06:51:23.799Z,28.10
2023-02-11T06:54:26.355Z,34.10
2023-02-11T06:57:26.807Z,25.80
2023-02-11T07:00:26.852Z,27.40
2023-02-11T07:03:27.907Z,33.60
2023-02-11T07:06:31.089Z,28.50
2023-02-11T07:09:34.902Z,30.70
2023-02-11T07:12:36.867Z,32.20
2023-02-11T07:15:38.949Z,30.50
2023-02-11T07:18:49.922Z,32.10
2023-02-11T07:21:55.366Z,31.60
2023-02-11T07:24:56.870Z,30.90
2023-02-11T07:28:00.497Z,34.30
2023-02-11T07:31:05.011Z,35.30
2023-02-11T07:34:06.156Z,37.40
2023-02-11T07:37:10.014Z,33.90
2023-02-11T07:40:13.016Z,37.20
2023-02-11T07:43:20.747Z,35.50
2023-02-11T07:46:31.966Z,34.50
2023-02-11T07:49:32.004Z,34.60
2023-02-11T07:52:31.933Z,35.40
2023-02-11T07:55:25.747Z,35.40
2023-02-11T07:58:25.996Z,36.60
2023-02-11T08:01:33.169Z,38.60
2023-02-11T08:04:34.042Z,36.00
2023-02-11T08:07:37.055Z,36.90
2023-02-11T08:10:38.958Z,35.70
2023-02-11T08:13:40.933Z,33.10
2023-02-11T08:16:58.296Z,37.50
2023-02-11T08:20:00.106Z,34.10
2023-02-11T08:23:04.992Z,38.90
2023-02-11T08:26:06.026Z,39.00
2023-02-11T08:29:07.411Z,34.20
2023-02-11T08:32:12.209Z,40.50
2023-02-11T08:35:14.449Z,43.30
2023-02-11T08:38:18.138Z,39.70
2023-02-11T08:41:21.509Z,44.50
2023-02-11T08:44:23.981Z,41.10
2023-02-11T08:47:27.998Z,44.00
2023-02-11T08:50:31.095Z,40.40
2023-02-11T08:53:40.544Z,46.30
2023-02-11T08:56:43.316Z,43.80
2023-02-11T08:59:45.979Z,48.30
2023-02-11T09:02:46.046Z,45.60
2023-02-11T09:05:46.688Z,49.80
2023-02-11T09:08:52.522Z,50.30
2023-02-11T09:11:56.238Z,43.10
2023-02-11T09:14:57.276Z,49.90
2023-02-11T09:17:59.068Z,46.20
2023-02-11T09:21:07.340Z,36.50
2023-02-11T09:24:10.534Z,36.40
2023-02-11T09:27:12.289Z,41.30
2023-02-11T09:30:20.071Z,39.70
2023-02-11T09:33:29.649Z,42.60
2023-02-11T09:36:36.107Z,42.90
2023-02-11T09:39:37.121Z,40.40
2023-02-11T09:42:48.105Z,44.60
2023-02-11T09:45:48.161Z,41.30
2023-02-11T09:48:53.378Z,44.10
2023-02-11T09:52:02.122Z,44.70
2023-02-11T09:55:06.143Z,41.10
2023-02-11T09:58:11.596Z,43.20
2023-02-11T10:01:28.225Z,42.60
2023-02-11T10:05:10.190Z,40.60
2023-02-11T10:08:34.135Z,39.80
2023-02-11T10:12:00.500Z,40.90
2023-02-11T10:15:40.803Z,44.70
2023-02-11T10:19:00.433Z,47.40
2023-02-11T10:22:23.555Z,37.20
2023-02-11T10:25:36.298Z,43.40
2023-02-11T10:28:47.247Z,44.70
2023-02-11T10:31:58.307Z,44.90
2023-02-11T10:35:04.764Z,40.90
2023-02-11T10:45:11.412Z,44.40
2023-02-11T10:48:19.615Z,40.90
2023-02-11T10:51:46.284Z,45.80
2023-02-11T10:54:46.241Z,41.00
2023-02-11T10:58:15.285Z,40.80
2023-02-11T11:04:55.324Z,46.90
2023-02-11T11:07:55.786Z,46.60
2023-02-11T11:10:58.286Z,42.90
2023-02-11T11:14:11.275Z,48.80
2023-02-11T11:17:13.237Z,39.80
2023-02-11T11:20:44.469Z,41.50
2023-02-11T11:23:52.271Z,40.80
2023-02-11T11:26:59.494Z,42.50
2023-02-11T11:30:06.312Z,39.90
2023-02-11T11:33:10.611Z,39.60
2023-02-11T11:36:15.454Z,37.90
2023-02-11T11:39:45.031Z,40.50
2023-02-11T11:42:53.347Z,38.50
2023-02-11T11:46:15.823Z,44.20
2023-02-11T11:49:32.292Z,42.40
2023-02-11T11:53:00.405Z,37.80
2023-02-11T11:56:13.592Z,41.50
2023-02-11T11:59:23.334Z,34.90
2023-02-11T12:02:52.409Z,35.00
2023-02-11T12:06:05.336Z,34.90
2023-02-11T12:09:35.357Z,35.30
2023-02-11T12:13:19.512Z,33.50
2023-02-11T12:16:48.438Z,34.50
2023-02-11T12:19:51.599Z,35.70
2023-02-11T12:23:13.381Z,34.40
2023-02-11T12:26:32.795Z,44.60
2023-02-11T12:29:50.357Z,37.20
2023-02-11T12:33:08.346Z,43.00
2023-02-11T12:36:45.374Z,39.40
2023-02-11T12:39:57.502Z,37.10
2023-02-11T12:43:22.386Z,32.50
2023-02-11T12:46:49.624Z,33.40
2023-02-11T12:50:05.431Z,34.40
2023-02-11T12:53:22.379Z,32.90
2023-02-11T12:56:28.423Z,33.10
2023-02-11T13:00:02.460Z,34.50
2023-02-11T13:03:19.127Z,32.40
2023-02-11T13:06:24.628Z,31.20
2023-02-11T13:09:33.469Z,34.00
2023-02-11T13:12:51.456Z,32.30
2023-02-11T13:15:55.572Z,29.00
2023-02-11T13:19:04.640Z,31.60
2023-02-11T13:22:18.634Z,30.40
2023-02-11T13:25:41.800Z,31.30
2023-02-11T13:29:08.519Z,28.00
2023-02-11T13:32:17.444Z,32.30
2023-02-11T13:35:42.791Z,30.00
2023-02-11T13:38:42.478Z,28.60
2023-02-11T13:41:40.383Z,27.10
2023-02-11T13:44:41.522Z,24.30
2023-02-11T13:47:44.531Z,32.80
2023-02-11T13:50:50.775Z,26.10
2023-02-11T13:54:11.568Z,30.70
2023-02-11T13:57:35.515Z,23.70
2023-02-11T14:00:49.290Z,26.90
2023-02-11T14:04:11.703Z,24.00
2023-02-11T14:08:02.637Z,22.90
2023-02-11T14:11:02.602Z,23.00
2023-02-11T14:14:03.526Z,20.80
2023-02-11T14:17:25.627Z,17.90
2023-02-11T14:20:46.610Z,15.90
2023-02-11T14:23:46.554Z,19.30
2023-02-11T14:26:59.746Z,16.90
2023-02-11T14:33:21.547Z,15.30
2023-02-11T14:36:49.749Z,16.30
2023-02-11T14:40:01.652Z,13.20
2023-02-11T14:43:05.604Z,14.90
2023-02-11T14:46:07.652Z,19.30
2023-02-11T14:49:10.602Z,20.70
2023-02-11T14:52:19.750Z,19.40
2023-02-11T14:55:29.631Z,26.00
2023-02-11T14:58:49.735Z,20.50
2023-02-11T15:01:53.677Z,20.50
2023-02-11T15:04:54.615Z,17.20
2023-02-11T15:07:59.781Z,20.30
2023-02-11T15:11:03.654Z,16.90
2023-02-11T15:14:05.989Z,17.20
2023-02-11T15:17:08.693Z,16.80
2023-02-11T15:20:12.673Z,17.90
2023-02-11T15:23:15.681Z,25.20
2023-02-11T15:26:24.684Z,23.80
2023-02-11T15:29:30.664Z,19.90
2023-02-11T15:33:03.945Z,21.50
2023-02-11T15:36:04.679Z,21.20
2023-02-11T15:39:31.714Z,21.00
2023-02-11T15:42:47.199Z,19.20
2023-02-11T15:45:58.832Z,23.10
2023-02-11T15:49:06.772Z,20.60
2023-02-11T15:52:08.711Z,22.60
2023-02-11T15:55:09.079Z,20.70
2023-02-11T15:58:13.815Z,23.60
2023-02-11T16:01:16.160Z,27.70
2023-02-11T16:04:20.976Z,25.20
2023-02-11T16:07:50.772Z,30.20
2023-02-11T16:10:52.044Z,25.90
2023-02-11T16:13:59.787Z,26.80
2023-02-11T16:17:01.711Z,28.60
2023-02-11T16:20:02.792Z,23.00
2023-02-11T16:23:03.791Z,26.90
2023-02-11T16:26:08.017Z,20.50
2023-02-11T16:29:15.998Z,30.50
2023-02-11T16:32:44.831Z,27.40
2023-02-11T16:35:44.863Z,25.40
2023-02-11T16:38:45.798Z,28.40
2023-02-11T16:41:45.807Z,27.50
2023-02-11T16:44:45.786Z,28.60
2023-02-11T16:47:46.790Z,24.40
2023-02-11T16:50:47.818Z,30.30
2023-02-11T16:53:49.866Z,28.30
2023-02-11T16:56:52.052Z,29.30
2023-02-11T17:02:52.822Z,26.20
2023-02-11T17:05:55.738Z,31.30
2023-02-11T17:09:02.898Z,26.90
2023-02-11T17:12:03.923Z,26.70
2023-02-11T17:15:07.536Z,27.10
2023-02-11T17:18:10.888Z,26.00
2023-02-11T17:21:12.987Z,25.00
2023-02-11T17:24:15.916Z,26.30
2023-02-11T17:27:16.172Z,26.60
2023-02-11T17:30:16.011Z,26.10
2023-02-11T17:33:16.179Z,25.20
2023-02-11T17:36:19.103Z,25.20
2023-02-11T17:39:21.939Z,23.50
2023-02-11T17:42:26.862Z,24.70
2023-02-11T17:45:26.986Z,22.90
2023-02-11T17:48:26.935Z,25.40
2023-02-11T17:51:44.949Z,24.90
2023-02-11T17:54:44.951Z,25.70
2023-02-11T17:57:45.089Z,23.00
2023-02-11T18:00:46.835Z,27.30
2023-02-11T18:03:49.998Z,25.70
2023-02-11T18:06:50.934Z,28.00
2023-02-11T18:09:53.832Z,26.60
2023-02-11T18:12:54.966Z,27.90
2023-02-11T18:15:59.166Z,25.00
2023-02-11T18:22:02.950Z,26.60
2023-02-11T18:25:09.930Z,23.20
2023-02-11T18:28:11.027Z,24.50
2023-02-11T18:31:12.339Z,24.80
2023-02-11T18:34:17.018Z,26.90
2023-02-11T18:37:18.472Z,24.90
2023-02-11T18:40:20.966Z,26.00
2023-02-11T18:43:21.187Z,35.10
2023-02-11T18:46:23.017Z,23.10
2023-02-11T18:49:25.153Z,25.70
2023-02-11T18:52:29.870Z,26.70
2023-02-11T18:55:32.083Z,29.20
2023-02-11T18:58:33.033Z,29.40
2023-02-11T19:01:39.153Z,26.90
2023-02-11T19:04:39.102Z,23.50
2023-02-11T19:07:39.110Z,28.30
2023-02-11T19:10:40.053Z,30.70
2023-02-11T19:13:42.111Z,26.70
2023-02-11T19:16:42.230Z,28.90
2023-02-11T19:19:47.374Z,25.20
2023-02-11T19:22:48.112Z,27.60
2023-02-11T19:25:48.179Z,26.10
2023-02-11T19:28:49.118Z,29.10
2023-02-11T19:31:50.470Z,22.50
2023-02-11T19:34:48.713Z,26.30
2023-02-11T19:37:55.648Z,26.10
2023-02-11T19:43:59.093Z,25.00
2023-02-11T19:46:59.151Z,27.90
2023-02-11T19:50:02.420Z,30.20
2023-02-11T19:53:09.185Z,29.60
2023-02-11T19:56:09.284Z,29.60
2023-02-11T19:59:11.128Z,32.70
2023-02-11T20:02:11.183Z,31.20
2023-02-11T20:05:11.161Z,33.10
2023-02-11T20:08:14.315Z,28.50
2023-02-11T20:11:24.132Z,33.20
2023-02-11T20:14:30.287Z,30.20
2023-02-11T20:17:32.153Z,30.40
2023-02-11T20:20:34.341Z,36.30
2023-02-11T20:23:40.159Z,32.50
2023-02-11T20:26:47.154Z,33.60
2023-02-11T20:29:48.161Z,35.00
2023-02-11T20:32:48.410Z,33.60
2023-02-11T20:35:50.371Z,32.70
2023-02-11T20:39:01.455Z,28.30
2023-02-11T20:42:09.935Z,35.10
2023-02-11T20:45:12.211Z,38.50
2023-02-11T20:48:12.252Z,31.70
2023-02-11T20:51:23.737Z,30.50
2023-02-11T20:54:31.548Z,38.00
2023-02-11T20:57:32.245Z,36.60
2023-02-11T21:00:34.528Z,24.10
2023-02-11T21:03:45.217Z,36.00
2023-02-11T21:06:50.229Z,32.60
2023-02-11T21:09:53.555Z,28.70
2023-02-11T21:12:58.240Z,31.70
2023-02-11T21:16:01.546Z,33.20
2023-02-11T21:19:02.875Z,33.70
2023-02-11T21:22:07.282Z,36.70
2023-02-11T21:25:08.461Z,34.40
2023-02-11T21:28:11.812Z,35.10
2023-02-11T21:31:13.392Z,33.60
2023-02-11T21:34:14.447Z,32.80
2023-02-11T21:37:15.224Z,32.40
2023-02-11T21:40:17.714Z,30.20
2023-02-11T21:43:19.256Z,33.40
2023-02-11T21:46:22.424Z,33.50
2023-02-11T21:49:26.283Z,30.80
2023-02-11T21:52:27.319Z,32.10
2023-02-11T21:55:27.356Z,34.00
2023-02-11T21:58:27.309Z,35.10
2023-02-11T22:01:30.618Z,31.00
2023-02-11T22:04:31.449Z,31.10
2023-02-11T22:07:33.322Z,32.10
2023-02-11T22:10:34.370Z,29.40
2023-02-11T22:13:35.341Z,33.00
2023-02-11T22:16:36.501Z,33.30
2023-02-11T22:19:38.373Z,31.20
2023-02-11T22:22:43.590Z,32.20
2023-02-11T22:25:43.431Z,32.90
2023-02-11T22:28:46.348Z,30.40
2023-02-11T22:34:46.363Z,34.20
2023-02-11T22:37:48.581Z,29.80
2023-02-11T22:40:48.395Z,25.20
2023-02-11T22:43:49.383Z,35.00
2023-02-11T22:46:50.628Z,30.80
2023-02-11T22:49:52.419Z,37.00
2023-02-11T22:52:54.378Z,27.90
2023-02-11T22:55:54.771Z,30.40
2023-02-11T22:58:55.648Z,32.40
2023-02-11T23:01:55.508Z,27.20
2023-02-11T23:04:56.465Z,32.50
2023-02-11T23:07:57.429Z,29.90
2023-02-11T23:10:59.417Z,29.60
2023-02-11T23:14:04.424Z,28.20
2023-02-11T23:17:05.428Z,29.20
2023-02-11T23:20:07.466Z,29.30
2023-02-11T23:23:07.667Z,28.40
2023-02-11T23:26:07.505Z,27.90
2023-02-11T23:29:10.424Z,30.60
2023-02-11T23:32:10.482Z,28.10
2023-02-11T23:35:10.464Z,29.90
2023-02-11T23:38:12.478Z,26.80
2023-02-11T23:41:12.529Z,27.30
2023-02-11T23:44:12.527Z,24.60
2023-02-11T23:47:13.487Z,28.20
2023-02-11T23:50:14.500Z,27.20
2023-02-11T23:53:15.484Z,24.70
2023-02-11T23:56:28.522Z,30.20
2023-02-11T23:59:29.492Z,23.00
